TimeEST,TemperatureF,Dew PointF,Humidity,Sea Level PressureIn,VisibilityMPH,Wind Direction,Wind SpeedMPH,Gust SpeedMPH,PrecipitationIn,Events,Conditions,WindDirDegrees,DateUTC
12:54 AM,46.9,25.0,42,30.01,-9999.0,West,10.4,-,N/A,,Partly Cloudy,270,2013-01-01 05:54:00
1:54 AM,46.9,26.1,44,30.01,-9999.0,West,10.4,-,N/A,,Clear,280,2013-01-01 06:54:00
2:54 AM,46.9,28.0,48,30.01,-9999.0,West,9.2,-,N/A,,Clear,280,2013-01-01 07:54:00
3:54 AM,46.0,28.9,51,29.99,-9999.0,WNW,5.8,-,N/A,,Clear,290,2013-01-01 08:54:00
4:54 AM,45.0,28.9,53,29.97,-9999.0,WNW,3.5,-,N/A,,Scattered Clouds,300,2013-01-01 09:54:00
5:54 AM,45.0,28.9,53,30.00,-9999.0,West,5.8,-,N/A,,Mostly Cloudy,270,2013-01-01 10:54:00
6:54 AM,43.0,33.1,68,30.00,-9999.0,West,5.8,-,0.01,Rain,Light Rain,260,2013-01-01 11:54:00
7:54 AM,43.0,33.1,68,30.00,-9999.0,West,6.9,-,0.00,Rain,Light Rain,260,2013-01-01 12:54:00
8:54 AM,43.0,34.0,71,30.00,-9999.0,West,3.5,-,0.02,Rain,Light Rain,260,2013-01-01 13:54:00
9:54 AM,43.0,35.1,74,30.01,-9999.0,West,4.6,-,0.01,Rain,Light Rain,270,2013-01-01 14:54:00
10:54 AM,45.0,36.0,71,29.98,-9999.0,SW,8.1,-,0.00,,Clear,230,2013-01-01 15:54:00
11:54 AM,45.0,36.0,71,29.97,-9999.0,West,8.1,-,N/A,,Overcast,260,2013-01-01 16:54:00
12:54 PM,46.0,35.1,66,29.95,-9999.0,West,9.2,-,N/A,,Overcast,280,2013-01-01 17:54:00
1:54 PM,45.0,36.0,71,29.92,-9999.0,West,9.2,-,N/A,,Overcast,280,2013-01-01 18:54:00
2:54 PM,45.0,36.0,71,29.91,-9999.0,West,10.4,-,N/A,,Partly Cloudy,280,2013-01-01 19:54:00
3:54 PM,45.0,36.0,71,29.94,-9999.0,NW,6.9,-,N/A,,Mostly Cloudy,310,2013-01-01 20:54:00
4:54 PM,44.1,36.0,73,29.94,-9999.0,WNW,4.6,-,N/A,,Partly Cloudy,290,2013-01-01 21:54:00
5:54 PM,43.0,36.0,76,29.95,-9999.0,West,3.5,-,N/A,,Clear,270,2013-01-01 22:54:00
6:54 PM,43.0,36.0,76,29.97,-9999.0,NNW,4.6,-,N/A,,Mostly Cloudy,330,2013-01-01 23:54:00
7:54 PM,42.1,34.0,73,29.98,-9999.0,NNW,4.6,-,N/A,,Clear,340,2013-01-02 00:54:00
8:54 PM,42.1,32.0,67,29.97,-9999.0,North,3.5,-,N/A,,Clear,10,2013-01-02 01:54:00
9:54 PM,42.1,30.9,65,30.00,-9999.0,NNW,3.5,-,N/A,,Overcast,340,2013-01-02 02:54:00
10:54 PM,41.0,30.0,65,30.02,-9999.0,NW,3.5,-,0.00,Rain,Light Rain,320,2013-01-02 03:54:00
11:54 PM,41.0,28.9,62,30.01,-9999.0,Calm,Calm,-,0.01,Rain,Light Rain,0,2013-01-02 04:54:00